createdAt,value
2017-07-02T00:00:36.702Z,0
2017-07-02T00:01:36.997Z,0
2017-07-02T00:02:36.701Z,0
2017-07-02T00:03:37.030Z,0
2017-07-02T00:04:36.999Z,0
2017-07-02T00:05:36.721Z,0
2017-07-02T00:06:36.606Z,0
2017-07-02T00:07:36.386Z,0
2017-07-02T00:08:36.887Z,0
2017-07-02T00:09:36.278Z,0
2017-07-02T00:10:36.903Z,0
2017-07-02T00:11:36.841Z,0
2017-07-02T00:12:36.511Z,0
2017-07-02T00:13:36.907Z,0
2017-07-02T00:14:36.173Z,0
2017-07-02T00:15:36.169Z,0
2017-07-02T00:16:36.771Z,0
2017-07-02T00:17:36.795Z,0
2017-07-02T00:18:36.111Z,0
2017-07-02T00:19:36.397Z,0
2017-07-02T00:20:36.417Z,0
2017-07-02T00:21:36.902Z,0
2017-07-02T00:22:36.362Z,0
2017-07-02T00:23:37.790Z,0
2017-07-02T00:24:36.331Z,0
2017-07-02T00:25:36.323Z,0
2017-07-02T00:26:36.932Z,0
2017-07-02T00:27:36.022Z,0
2017-07-02T00:28:36.280Z,0
2017-07-02T00:29:36.247Z,0
2017-07-02T00:30:36.551Z,0
2017-07-02T00:31:36.233Z,0
2017-07-02T00:32:36.236Z,0
2017-07-02T00:33:36.493Z,0
2017-07-02T00:34:36.170Z,0
2017-07-02T00:35:36.464Z,0
2017-07-02T00:36:36.143Z,0
2017-07-02T00:37:36.143Z,0
2017-07-02T00:38:36.128Z,0
2017-07-02T00:39:36.410Z,0
2017-07-02T00:40:36.097Z,0
2017-07-02T00:41:36.066Z,0
2017-07-02T00:42:36.230Z,0
2017-07-02T00:43:36.058Z,0
2017-07-02T00:44:36.022Z,0
2017-07-02T00:45:36.188Z,0
2017-07-02T00:46:36.093Z,0
2017-07-02T00:47:36.272Z,0
2017-07-02T00:48:35.964Z,0
2017-07-02T00:49:35.964Z,0
2017-07-02T00:50:35.344Z,0
2017-07-02T00:51:35.914Z,0
2017-07-02T00:52:36.205Z,0
2017-07-02T00:53:36.206Z,0
2017-07-02T00:54:36.175Z,0
2017-07-02T00:55:36.143Z,0
2017-07-02T00:56:35.835Z,0
2017-07-02T00:57:36.141Z,0
2017-07-02T00:58:36.102Z,0
2017-07-02T00:59:36.093Z,0
2017-07-02T01:00:36.082Z,0
2017-07-02T01:01:35.155Z,0
2017-07-02T01:02:35.761Z,0
2017-07-02T01:03:35.766Z,0
2017-07-02T01:04:36.002Z,0
2017-07-02T01:05:36.057Z,0
2017-07-02T01:06:35.680Z,0
2017-07-02T01:07:35.965Z,0
2017-07-02T01:08:35.952Z,0
2017-07-02T01:09:35.937Z,0
2017-07-02T01:10:35.923Z,0
2017-07-02T01:11:35.639Z,0
2017-07-02T01:12:35.572Z,0
2017-07-02T01:13:35.894Z,0
2017-07-02T01:14:35.873Z,0
2017-07-02T01:15:35.541Z,0
2017-07-02T01:16:35.523Z,0
2017-07-02T01:17:35.578Z,0
2017-07-02T01:18:35.794Z,0
2017-07-02T01:19:35.780Z,0
2017-07-02T01:20:35.496Z,0
2017-07-02T01:21:35.761Z,0
2017-07-02T01:22:35.743Z,0
2017-07-02T01:23:35.730Z,0
2017-07-02T01:24:35.704Z,0
2017-07-02T01:25:35.711Z,0
2017-07-02T01:26:35.400Z,0
2017-07-02T01:27:35.633Z,0
2017-07-02T01:28:35.056Z,0
2017-07-02T01:29:35.623Z,0
2017-07-02T01:30:35.599Z,0
2017-07-02T01:31:35.291Z,0
2017-07-02T01:32:35.563Z,0
2017-07-02T01:33:34.935Z,0
2017-07-02T01:34:35.539Z,0
2017-07-02T01:35:35.573Z,0
2017-07-02T01:36:34.638Z,0
2017-07-02T01:37:35.181Z,0
2017-07-02T01:38:35.503Z,0
2017-07-02T01:39:35.155Z,0
2017-07-02T01:40:35.437Z,0
2017-07-02T01:41:34.827Z,0
2017-07-02T01:42:35.438Z,0
2017-07-02T01:43:35.174Z,0
2017-07-02T01:44:35.362Z,0
2017-07-02T01:45:34.817Z,0
2017-07-02T01:46:35.054Z,0
2017-07-02T01:47:34.457Z,0
2017-07-02T01:48:35.342Z,0
2017-07-02T01:49:35.342Z,0
2017-07-02T01:50:35.292Z,0
2017-07-02T01:51:34.943Z,0
2017-07-02T01:52:34.635Z,0
2017-07-02T01:53:35.313Z,0
2017-07-02T01:54:34.923Z,0
2017-07-02T01:55:34.885Z,0
2017-07-02T01:56:34.893Z,0
2017-07-02T01:57:34.869Z,0
2017-07-02T01:58:35.152Z,0
2017-07-02T01:59:35.221Z,0
2017-07-02T02:00:34.806Z,0
2017-07-02T02:01:35.191Z,0
2017-07-02T02:02:34.778Z,0
2017-07-02T02:03:34.503Z,0
2017-07-02T02:04:34.752Z,0
2017-07-02T02:05:34.586Z,0
2017-07-02T02:06:34.472Z,0
2017-07-02T02:07:34.795Z,0
2017-07-02T02:08:35.033Z,0
2017-07-02T02:09:35.034Z,0
2017-07-02T02:10:34.712Z,0
2017-07-02T02:11:34.634Z,0
2017-07-02T02:12:34.949Z,0
2017-07-02T02:13:34.357Z,0
2017-07-02T02:14:34.912Z,0
2017-07-02T02:15:34.681Z,0
2017-07-02T02:16:34.257Z,0
2017-07-02T02:17:34.283Z,0
2017-07-02T02:18:34.885Z,0
2017-07-02T02:19:34.805Z,0
2017-07-02T02:20:34.843Z,0
2017-07-02T02:21:34.154Z,0
2017-07-02T02:22:34.202Z,0
2017-07-02T02:23:34.184Z,0
2017-07-02T02:24:34.115Z,0
2017-07-02T02:25:34.820Z,0
2017-07-02T02:26:34.177Z,0
2017-07-02T02:27:34.426Z,0
2017-07-02T02:28:34.046Z,0
2017-07-02T02:29:33.723Z,0
2017-07-02T02:30:33.733Z,0
2017-07-02T02:31:34.326Z,0
2017-07-02T02:32:34.285Z,0
2017-07-02T02:33:33.978Z,0
2017-07-02T02:34:34.566Z,4
2017-07-02T02:35:34.256Z,4
2017-07-02T02:36:34.523Z,4
2017-07-02T02:37:34.256Z,0
2017-07-02T02:38:34.517Z,0
2017-07-02T02:39:34.558Z,0
2017-07-02T02:40:34.157Z,4
2017-07-02T02:41:33.836Z,4
2017-07-02T02:42:34.127Z,0
2017-07-02T02:43:33.795Z,4
2017-07-02T02:44:34.405Z,4
2017-07-02T02:45:34.076Z,4
2017-07-02T02:46:33.756Z,4
2017-07-02T02:47:33.740Z,4
2017-07-02T02:48:34.431Z,4
2017-07-02T02:49:33.705Z,4
2017-07-02T02:50:34.325Z,8
2017-07-02T02:51:34.304Z,4
2017-07-02T02:52:34.018Z,4
2017-07-02T02:53:33.947Z,8
2017-07-02T02:54:33.926Z,8
2017-07-02T02:55:33.675Z,8
2017-07-02T02:56:33.906Z,12
2017-07-02T02:57:33.875Z,12
2017-07-02T02:58:34.169Z,12
2017-07-02T02:59:33.847Z,16
2017-07-02T03:00:33.836Z,16
2017-07-02T03:01:33.802Z,16
2017-07-02T03:02:34.125Z,20
2017-07-02T03:03:33.496Z,24
2017-07-02T03:04:34.094Z,24
2017-07-02T03:05:33.445Z,28
2017-07-02T03:06:33.736Z,32
2017-07-02T03:07:33.726Z,32
2017-07-02T03:08:34.006Z,36
2017-07-02T03:09:33.708Z,40
2017-07-02T03:10:33.976Z,44
2017-07-02T03:11:33.454Z,44
2017-07-02T03:12:34.234Z,52
2017-07-02T03:13:33.008Z,52
2017-07-02T03:14:33.607Z,60
2017-07-02T03:15:33.597Z,64
2017-07-02T03:16:33.867Z,68
2017-07-02T03:17:33.856Z,76
2017-07-02T03:18:33.831Z,80
2017-07-02T03:19:33.509Z,92
2017-07-02T03:20:33.800Z,96
2017-07-02T03:21:33.174Z,96
2017-07-02T03:22:33.466Z,100
2017-07-02T03:23:33.757Z,104
2017-07-02T03:24:33.129Z,112
2017-07-02T03:25:33.724Z,112
2017-07-02T03:26:33.090Z,116
2017-07-02T03:27:33.398Z,120
2017-07-02T03:28:33.675Z,116
2017-07-02T03:29:33.362Z,116
2017-07-02T03:30:33.647Z,120
2017-07-02T03:31:33.318Z,124
2017-07-02T03:32:33.300Z,128
2017-07-02T03:33:33.609Z,140
2017-07-02T03:34:33.576Z,148
2017-07-02T03:35:33.554Z,156
2017-07-02T03:36:33.266Z,168
2017-07-02T03:37:33.226Z,176
2017-07-02T03:38:33.508Z,176
2017-07-02T03:39:32.866Z,184
2017-07-02T03:40:33.176Z,196
2017-07-02T03:41:33.156Z,200
2017-07-02T03:42:33.146Z,192
2017-07-02T03:43:33.135Z,196
2017-07-02T03:44:33.433Z,200
2017-07-02T03:45:33.090Z,204
2017-07-02T03:46:33.381Z,208
2017-07-02T03:47:32.745Z,212
2017-07-02T03:48:32.736Z,216
2017-07-02T03:49:33.335Z,228
2017-07-02T03:50:33.017Z,244
2017-07-02T03:51:33.006Z,260
2017-07-02T03:52:33.297Z,272
2017-07-02T03:53:33.260Z,280
2017-07-02T03:54:32.995Z,304
2017-07-02T03:55:33.246Z,328
2017-07-02T03:56:33.205Z,332
2017-07-02T03:57:32.585Z,348
2017-07-02T03:58:32.886Z,352
2017-07-02T03:59:32.535Z,360
2017-07-02T04:00:32.547Z,364
2017-07-02T04:01:32.846Z,376
2017-07-02T04:02:33.117Z,412
2017-07-02T04:03:32.797Z,428
2017-07-02T04:04:32.503Z,424
2017-07-02T04:05:32.745Z,392
2017-07-02T04:06:32.737Z,384
2017-07-02T04:07:32.418Z,372
2017-07-02T04:08:32.767Z,360
2017-07-02T04:09:33.017Z,352
2017-07-02T04:10:32.974Z,332
2017-07-02T04:11:32.675Z,324
2017-07-02T04:12:32.349Z,320
2017-07-02T04:13:32.938Z,336
2017-07-02T04:14:32.626Z,340
2017-07-02T04:15:32.046Z,336
2017-07-02T04:16:32.626Z,340
2017-07-02T04:17:32.575Z,344
2017-07-02T04:18:32.979Z,364
2017-07-02T04:19:32.966Z,388
2017-07-02T04:20:32.657Z,400
2017-07-02T04:21:32.297Z,392
2017-07-02T04:22:32.807Z,388
2017-07-02T04:23:32.155Z,400
2017-07-02T04:24:32.467Z,424
2017-07-02T04:25:32.457Z,428
2017-07-02T04:26:32.408Z,420
2017-07-02T04:27:32.496Z,432
2017-07-02T04:28:32.064Z,464
2017-07-02T04:29:32.679Z,484
2017-07-02T04:30:32.404Z,500
2017-07-02T04:31:32.444Z,504
2017-07-02T04:32:32.714Z,480
2017-07-02T04:33:32.747Z,464
2017-07-02T04:34:32.315Z,464
2017-07-02T04:35:32.334Z,480
2017-07-02T04:36:32.253Z,508
2017-07-02T04:37:31.926Z,536
2017-07-02T04:38:32.224Z,568
2017-07-02T04:39:32.616Z,604
2017-07-02T04:40:32.185Z,612
2017-07-02T04:41:32.184Z,616
2017-07-02T04:42:31.532Z,628
2017-07-02T04:43:32.441Z,640
2017-07-02T04:44:32.112Z,656
2017-07-02T04:45:31.789Z,672
2017-07-02T04:46:32.082Z,692
2017-07-02T04:47:32.150Z,728
2017-07-02T04:48:32.057Z,772
2017-07-02T04:49:32.062Z,792
2017-07-02T04:50:32.014Z,788
2017-07-02T04:51:31.693Z,784
2017-07-02T04:52:31.693Z,800
2017-07-02T04:53:31.975Z,808
2017-07-02T04:54:32.057Z,796
2017-07-02T04:55:31.943Z,792
2017-07-02T04:56:32.245Z,808
2017-07-02T04:57:31.923Z,840
2017-07-02T04:58:31.891Z,880
2017-07-02T04:59:31.552Z,932
2017-07-02T05:00:31.888Z,1000
2017-07-02T05:01:31.525Z,1064
2017-07-02T05:02:31.807Z,1112
2017-07-02T05:03:31.494Z,1144
2017-07-02T05:04:32.113Z,1200
2017-07-02T05:05:32.133Z,1288
2017-07-02T05:06:32.115Z,1340
2017-07-02T05:07:31.733Z,1376
2017-07-02T05:08:31.122Z,1356
2017-07-02T05:09:32.020Z,1280
2017-07-02T05:10:31.381Z,1212
2017-07-02T05:11:31.667Z,1180
2017-07-02T05:12:31.640Z,1112
2017-07-02T05:13:31.665Z,1120
2017-07-02T05:14:31.631Z,1176
2017-07-02T05:15:31.293Z,1224
2017-07-02T05:16:31.571Z,1240
2017-07-02T05:17:31.566Z,1224
2017-07-02T05:18:31.565Z,1180
2017-07-02T05:19:31.840Z,1140
2017-07-02T05:20:31.519Z,1136
2017-07-02T05:21:31.521Z,1116
2017-07-02T05:22:31.807Z,1116
2017-07-02T05:23:31.482Z,1148
2017-07-02T05:24:31.152Z,1188
2017-07-02T05:25:31.779Z,1228
2017-07-02T05:26:31.416Z,1264
2017-07-02T05:27:31.416Z,1312
2017-07-02T05:28:31.103Z,1356
2017-07-02T05:29:31.793Z,1400
2017-07-02T05:30:31.414Z,1460
2017-07-02T05:31:31.341Z,1528
2017-07-02T05:32:31.333Z,1600
2017-07-02T05:33:30.709Z,1672
2017-07-02T05:34:31.613Z,1704
2017-07-02T05:35:31.292Z,1700
2017-07-02T05:36:31.251Z,1680
2017-07-02T05:37:31.557Z,1640
2017-07-02T05:38:31.231Z,1604
2017-07-02T05:39:31.519Z,1588
2017-07-02T05:40:31.483Z,1580
2017-07-02T05:41:31.514Z,1592
2017-07-02T05:42:30.853Z,1700
2017-07-02T05:43:31.151Z,1780
2017-07-02T05:44:31.161Z,1940
2017-07-02T05:45:31.133Z,2144
2017-07-02T05:46:31.397Z,2368
2017-07-02T05:47:31.101Z,2596
2017-07-02T05:48:31.370Z,2808
2017-07-02T05:49:31.049Z,3000
2017-07-02T05:50:30.733Z,3144
2017-07-02T05:51:31.321Z,3232
2017-07-02T05:52:31.013Z,3292
2017-07-02T05:53:31.301Z,3360
2017-07-02T05:54:31.281Z,3320
2017-07-02T05:55:30.645Z,3252
2017-07-02T05:56:30.630Z,3336
2017-07-02T05:57:31.216Z,3476
2017-07-02T05:58:31.211Z,3604
2017-07-02T05:59:30.621Z,3676
2017-07-02T06:00:30.861Z,3696
2017-07-02T06:01:30.860Z,3744
2017-07-02T06:02:31.144Z,3892
2017-07-02T06:03:31.206Z,4136
2017-07-02T06:04:30.810Z,4348
2017-07-02T06:05:31.116Z,4476
2017-07-02T06:06:30.781Z,4716
2017-07-02T06:07:31.080Z,4952
2017-07-02T06:08:30.755Z,5124
2017-07-02T06:09:30.760Z,5356
2017-07-02T06:10:31.032Z,5516
2017-07-02T06:11:30.994Z,5560
2017-07-02T06:12:30.693Z,5512
2017-07-02T06:13:30.787Z,5320
2017-07-02T06:14:30.414Z,4936
2017-07-02T06:15:30.153Z,4544
2017-07-02T06:16:30.000Z,4376
2017-07-02T06:17:30.631Z,4332
2017-07-02T06:18:30.900Z,4316
2017-07-02T06:19:30.891Z,4300
2017-07-02T06:20:30.886Z,4232
2017-07-02T06:21:30.321Z,4056
2017-07-02T06:22:30.222Z,3764
2017-07-02T06:23:30.811Z,3400
2017-07-02T06:24:30.561Z,3096
2017-07-02T06:25:30.782Z,2864
2017-07-02T06:26:30.799Z,2640
2017-07-02T06:27:30.211Z,2488
2017-07-02T06:28:30.730Z,2356
2017-07-02T06:29:30.444Z,2324
2017-07-02T06:30:30.482Z,2340
2017-07-02T06:31:30.692Z,2256
2017-07-02T06:32:30.361Z,2152
2017-07-02T06:33:30.430Z,2092
2017-07-02T06:34:30.410Z,2104
2017-07-02T06:35:30.332Z,2188
2017-07-02T06:36:30.604Z,2380
2017-07-02T06:37:30.004Z,2588
2017-07-02T06:38:30.323Z,2692
2017-07-02T06:39:30.302Z,2848
2017-07-02T06:40:30.282Z,2932
2017-07-02T06:41:30.530Z,3020
2017-07-02T06:42:30.287Z,3200
2017-07-02T06:43:30.519Z,3580
2017-07-02T06:44:29.891Z,4028
2017-07-02T06:45:29.869Z,4396
2017-07-02T06:46:29.559Z,4672
2017-07-02T06:47:30.190Z,4992
2017-07-02T06:48:29.816Z,5292
2017-07-02T06:49:29.489Z,5496
2017-07-02T06:50:30.101Z,5648
2017-07-02T06:51:29.486Z,5732
2017-07-02T06:52:29.752Z,5976
2017-07-02T06:53:30.061Z,6140
2017-07-02T06:54:30.041Z,6048
2017-07-02T06:55:30.032Z,5636
2017-07-02T06:56:29.790Z,5012
2017-07-02T06:57:29.988Z,4352
2017-07-02T06:58:29.980Z,3964
2017-07-02T06:59:30.088Z,3864
2017-07-02T07:00:29.930Z,3780
2017-07-02T07:01:29.618Z,3620
2017-07-02T07:02:30.231Z,3396
2017-07-02T07:03:29.298Z,3168
2017-07-02T07:04:29.781Z,2904
2017-07-02T07:05:29.889Z,2656
2017-07-02T07:06:30.172Z,2484
2017-07-02T07:07:30.159Z,2356
2017-07-02T07:08:29.519Z,2180
2017-07-02T07:09:29.881Z,2016
2017-07-02T07:10:29.800Z,1916
2017-07-02T07:11:29.479Z,1916
2017-07-02T07:12:30.076Z,1996
2017-07-02T07:13:29.761Z,2152
2017-07-02T07:14:29.719Z,2408
2017-07-02T07:15:30.080Z,2760
2017-07-02T07:16:29.690Z,3100
2017-07-02T07:17:29.668Z,3404
2017-07-02T07:18:29.367Z,3652
2017-07-02T07:19:30.017Z,3496
2017-07-02T07:20:29.631Z,3204
2017-07-02T07:21:29.940Z,3144
2017-07-02T07:22:30.031Z,3068
2017-07-02T07:23:29.633Z,2668
2017-07-02T07:24:29.890Z,2256
2017-07-02T07:25:29.569Z,1816
2017-07-02T07:26:29.253Z,1364
2017-07-02T07:27:29.537Z,1036
2017-07-02T07:28:29.217Z,884
2017-07-02T07:29:28.883Z,848
2017-07-02T07:30:29.179Z,884
2017-07-02T07:31:29.500Z,948
2017-07-02T07:32:29.163Z,1044
2017-07-02T07:33:29.483Z,1220
2017-07-02T07:34:29.120Z,1468
2017-07-02T07:35:29.764Z,1820
2017-07-02T07:36:29.085Z,2268
2017-07-02T07:37:29.389Z,2508
2017-07-02T07:38:29.042Z,2704
2017-07-02T07:39:29.401Z,3284
2017-07-02T07:40:29.346Z,3660
2017-07-02T07:41:29.011Z,3596
2017-07-02T07:42:29.299Z,3192
2017-07-02T07:43:29.330Z,2940
2017-07-02T07:44:28.962Z,2816
2017-07-02T07:45:29.013Z,2880
2017-07-02T07:46:29.534Z,2852
2017-07-02T07:47:29.219Z,2660
2017-07-02T07:48:29.511Z,2584
2017-07-02T07:49:29.493Z,2592
2017-07-02T07:50:29.180Z,2500
2017-07-02T07:51:29.462Z,2304
2017-07-02T07:52:28.909Z,2156
2017-07-02T07:53:29.439Z,2104
2017-07-02T07:54:29.110Z,2204
2017-07-02T07:55:28.795Z,2280
2017-07-02T07:56:29.082Z,2228
2017-07-02T07:57:29.141Z,2072
2017-07-02T07:58:29.423Z,1972
2017-07-02T07:59:29.053Z,2064
2017-07-02T08:00:29.030Z,2152
2017-07-02T08:01:29.001Z,2220
2017-07-02T08:02:29.301Z,2268
2017-07-02T08:03:28.973Z,2164
2017-07-02T08:04:28.977Z,1868
2017-07-02T08:05:28.631Z,1760
2017-07-02T08:06:29.230Z,1620
2017-07-02T08:07:28.607Z,1604
2017-07-02T08:08:29.200Z,1524
2017-07-02T08:09:28.910Z,1320
2017-07-02T08:10:28.872Z,1240
2017-07-02T08:11:28.881Z,1176
2017-07-02T08:12:28.691Z,1504
2017-07-02T08:13:29.120Z,1712
2017-07-02T08:14:29.129Z,1564
2017-07-02T08:15:29.291Z,1568
2017-07-02T08:16:29.075Z,1828
2017-07-02T08:17:29.071Z,2508
2017-07-02T08:18:28.761Z,2900
2017-07-02T08:19:28.421Z,2920
2017-07-02T08:20:29.021Z,3124
2017-07-02T08:21:28.501Z,3092
2017-07-02T08:22:28.994Z,2712
2017-07-02T08:23:28.983Z,2868
2017-07-02T08:24:28.660Z,2516
2017-07-02T08:25:28.961Z,2372
2017-07-02T08:26:28.940Z,2356
2017-07-02T08:27:28.622Z,2492
2017-07-02T08:28:28.902Z,2516
2017-07-02T08:29:28.573Z,2052
2017-07-02T08:30:28.886Z,1928
2017-07-02T08:31:27.942Z,2100
2017-07-02T08:32:28.851Z,2404
2017-07-02T08:33:28.221Z,2788
2017-07-02T08:34:28.574Z,3316
2017-07-02T08:35:28.540Z,3604
2017-07-02T08:36:28.263Z,3240
2017-07-02T08:37:28.792Z,2700
2017-07-02T08:38:28.141Z,2408
2017-07-02T08:39:28.761Z,1952
2017-07-02T08:40:28.731Z,1652
2017-07-02T08:41:28.727Z,1904
2017-07-02T08:42:28.440Z,2272
2017-07-02T08:43:28.695Z,2360
2017-07-02T08:44:28.416Z,2560
2017-07-02T08:45:28.345Z,2380
2017-07-02T08:46:28.629Z,2412
2017-07-02T08:47:28.313Z,2780
2017-07-02T08:48:28.333Z,2960
2017-07-02T08:49:28.596Z,2824
2017-07-02T08:50:28.578Z,2948
2017-07-02T08:51:28.713Z,3632
2017-07-02T08:52:28.572Z,4188
2017-07-02T08:53:28.238Z,4420
2017-07-02T08:54:28.308Z,4612
2017-07-02T08:55:28.517Z,4300
2017-07-02T08:56:28.572Z,3332
2017-07-02T08:57:28.599Z,2360
2017-07-02T08:58:28.485Z,1940
2017-07-02T08:59:28.440Z,1776
2017-07-02T09:00:28.421Z,1724
2017-07-02T09:01:28.470Z,1484
2017-07-02T09:02:28.410Z,1644
2017-07-02T09:03:28.442Z,1884
2017-07-02T09:04:27.763Z,2008
2017-07-02T09:05:28.373Z,1832
2017-07-02T09:06:28.341Z,1652
2017-07-02T09:07:28.010Z,1688
2017-07-02T09:08:28.011Z,1904
2017-07-02T09:09:28.031Z,2196
2017-07-02T09:10:28.353Z,2428
2017-07-02T09:11:28.333Z,2292
2017-07-02T09:12:27.931Z,2436
2017-07-02T09:13:27.933Z,2560
2017-07-02T09:14:28.381Z,2612
2017-07-02T09:15:27.886Z,2812
2017-07-02T09:16:28.239Z,2788
2017-07-02T09:17:27.872Z,2788
2017-07-02T09:18:28.170Z,3132
2017-07-02T09:19:28.162Z,3184
2017-07-02T09:20:27.853Z,3184
2017-07-02T09:21:27.803Z,2980
2017-07-02T09:22:27.792Z,3212
2017-07-02T09:23:27.791Z,2468
2017-07-02T09:24:27.779Z,1964
2017-07-02T09:25:27.740Z,2196
2017-07-02T09:26:28.032Z,1912
2017-07-02T09:27:28.120Z,1596
2017-07-02T09:28:27.382Z,1580
2017-07-02T09:29:27.682Z,1764
2017-07-02T09:30:27.743Z,2016
2017-07-02T09:31:27.663Z,2292
2017-07-02T09:32:27.959Z,2756
2017-07-02T09:33:27.330Z,2904
2017-07-02T09:34:27.296Z,2956
2017-07-02T09:35:28.009Z,3640
2017-07-02T09:36:27.293Z,3384
2017-07-02T09:37:27.900Z,3056
2017-07-02T09:38:27.560Z,2916
2017-07-02T09:39:27.871Z,2584
2017-07-02T09:40:27.882Z,2968
2017-07-02T09:41:27.869Z,2856
2017-07-02T09:42:27.803Z,2916
2017-07-02T09:43:27.790Z,2908
2017-07-02T09:44:27.764Z,3652
2017-07-02T09:45:27.765Z,3972
2017-07-02T09:46:27.452Z,4192
2017-07-02T09:47:27.089Z,4340
2017-07-02T09:48:27.720Z,4396
2017-07-02T09:49:27.372Z,4632
2017-07-02T09:50:27.680Z,4432
2017-07-02T09:51:27.364Z,4092
2017-07-02T09:52:27.642Z,3284
2017-07-02T09:53:27.321Z,2620
2017-07-02T09:54:27.341Z,2372
2017-07-02T09:55:27.310Z,2404
2017-07-02T09:56:27.594Z,2400
2017-07-02T09:57:26.964Z,2660
2017-07-02T09:58:27.563Z,2780
2017-07-02T09:59:26.942Z,2804
2017-07-02T10:00:27.211Z,2536
2017-07-02T10:01:27.193Z,2636
2017-07-02T10:02:27.182Z,2496
2017-07-02T10:03:27.492Z,3156
2017-07-02T10:04:26.852Z,3120
2017-07-02T10:05:27.461Z,2660
2017-07-02T10:06:27.128Z,2312
2017-07-02T10:07:27.413Z,2528
2017-07-02T10:08:27.436Z,2956
2017-07-02T10:09:27.104Z,3024
2017-07-02T10:10:27.392Z,3104
2017-07-02T10:11:26.730Z,3592
2017-07-02T10:12:27.362Z,3672
2017-07-02T10:13:27.321Z,3652
2017-07-02T10:14:27.047Z,3992
2017-07-02T10:15:26.668Z,3784
2017-07-02T10:16:26.670Z,4600
2017-07-02T10:17:26.964Z,4408
2017-07-02T10:18:27.261Z,4880
2017-07-02T10:19:27.298Z,5580
2017-07-02T10:20:27.233Z,4840
2017-07-02T10:21:27.245Z,3972
2017-07-02T10:22:27.188Z,3860
2017-07-02T10:23:27.203Z,3660
2017-07-02T10:24:27.181Z,3044
2017-07-02T10:25:27.172Z,2372
2017-07-02T10:26:27.130Z,2540
2017-07-02T10:27:27.119Z,2784
2017-07-02T10:28:27.095Z,3988
2017-07-02T10:29:27.094Z,4904
2017-07-02T10:30:27.086Z,5220
2017-07-02T10:31:27.054Z,4696
2017-07-02T10:32:27.056Z,3880
2017-07-02T10:33:26.754Z,4088
2017-07-02T10:34:26.738Z,3332
2017-07-02T10:35:26.931Z,2868
2017-07-02T10:36:27.001Z,2464
2017-07-02T10:37:26.672Z,2128
2017-07-02T10:38:26.976Z,1972
2017-07-02T10:39:26.715Z,2008
2017-07-02T10:40:26.645Z,1888
2017-07-02T10:41:26.907Z,1888
2017-07-02T10:42:26.653Z,1740
2017-07-02T10:43:26.633Z,1752
2017-07-02T10:44:26.589Z,2144
2017-07-02T10:45:26.927Z,1912
2017-07-02T10:46:26.964Z,1600
2017-07-02T10:47:26.843Z,1508
2017-07-02T10:48:26.519Z,1520
2017-07-02T10:49:26.518Z,1360
2017-07-02T10:50:26.892Z,1428
2017-07-02T10:51:26.476Z,1708
2017-07-02T10:52:26.852Z,1560
2017-07-02T10:53:26.839Z,1616
2017-07-02T10:54:26.822Z,2172
2017-07-02T10:55:26.814Z,2296
2017-07-02T10:56:26.804Z,2460
2017-07-02T10:57:26.780Z,1832
2017-07-02T10:58:26.936Z,1776
2017-07-02T10:59:26.761Z,2384
2017-07-02T11:00:26.425Z,2352
2017-07-02T11:01:26.314Z,2096
2017-07-02T11:02:26.319Z,1996
2017-07-02T11:03:26.645Z,2044
2017-07-02T11:04:25.977Z,1888
2017-07-02T11:05:26.578Z,2012
2017-07-02T11:06:26.554Z,2148
2017-07-02T11:07:26.548Z,2308
2017-07-02T11:08:26.530Z,2592
2017-07-02T11:09:26.560Z,2840
2017-07-02T11:10:26.510Z,3488
2017-07-02T11:11:26.559Z,3396
2017-07-02T11:12:26.572Z,3556
2017-07-02T11:13:26.537Z,3488
2017-07-02T11:14:26.042Z,3040
2017-07-02T11:15:26.420Z,2944
2017-07-02T11:16:26.775Z,3580
2017-07-02T11:17:26.464Z,3528
2017-07-02T11:18:26.393Z,2980
2017-07-02T11:19:26.601Z,3640
2017-07-02T11:20:26.370Z,3948
2017-07-02T11:21:26.012Z,3400
2017-07-02T11:22:26.348Z,4104
2017-07-02T11:23:25.976Z,4292
2017-07-02T11:24:26.295Z,4332
2017-07-02T11:25:25.950Z,4376
2017-07-02T11:26:25.983Z,4124
2017-07-02T11:27:25.930Z,4004
2017-07-02T11:28:26.208Z,3840
2017-07-02T11:29:25.911Z,3720
2017-07-02T11:30:25.809Z,3604
2017-07-02T11:31:25.861Z,3520
2017-07-02T11:32:26.162Z,3604
2017-07-02T11:33:26.165Z,3700
2017-07-02T11:34:26.773Z,3812
2017-07-02T11:35:26.137Z,4120
2017-07-02T11:36:25.803Z,4568
2017-07-02T11:37:26.094Z,5160
2017-07-02T11:38:26.141Z,5772
2017-07-02T11:39:26.069Z,6044
2017-07-02T11:40:26.051Z,5888
2017-07-02T11:41:26.032Z,5592
2017-07-02T11:42:26.045Z,5228
2017-07-02T11:43:26.051Z,5056
2017-07-02T11:44:25.713Z,4976
2017-07-02T11:45:25.991Z,5036
2017-07-02T11:46:25.970Z,5272
2017-07-02T11:47:25.627Z,5744
2017-07-02T11:48:25.633Z,5968
2017-07-02T11:49:25.629Z,6148
2017-07-02T11:50:25.916Z,6320
2017-07-02T11:51:25.913Z,5976
2017-07-02T11:52:25.257Z,5504
2017-07-02T11:53:25.858Z,5316
2017-07-02T11:54:25.881Z,5036
2017-07-02T11:55:25.829Z,4940
2017-07-02T11:56:25.829Z,5100
2017-07-02T11:57:25.523Z,5440
2017-07-02T11:58:25.836Z,5552
2017-07-02T11:59:25.469Z,5728
2017-07-02T12:00:25.761Z,5804
2017-07-02T12:01:25.471Z,5868
2017-07-02T12:02:25.740Z,5932
2017-07-02T12:03:25.429Z,6544
2017-07-02T12:04:25.408Z,6968
2017-07-02T12:05:25.681Z,7268
2017-07-02T12:06:25.680Z,7232
2017-07-02T12:07:25.381Z,6888
2017-07-02T12:08:25.348Z,6788
2017-07-02T12:09:25.348Z,6800
2017-07-02T12:10:25.627Z,6636
2017-07-02T12:11:25.632Z,6312
2017-07-02T12:12:25.618Z,6072
2017-07-02T12:13:25.597Z,5924
2017-07-02T12:14:25.597Z,5904
2017-07-02T12:15:25.570Z,5856
2017-07-02T12:16:25.258Z,5708
2017-07-02T12:17:25.259Z,5784
2017-07-02T12:18:25.223Z,6340
2017-07-02T12:19:25.262Z,7024
2017-07-02T12:20:25.491Z,7940
2017-07-02T12:21:25.194Z,8672
2017-07-02T12:22:25.179Z,9828
2017-07-02T12:23:25.152Z,11416
2017-07-02T12:24:25.552Z,12284
2017-07-02T12:25:25.431Z,11708
2017-07-02T12:26:25.154Z,10920
2017-07-02T12:27:25.442Z,10212
2017-07-02T12:28:25.523Z,9392
2017-07-02T12:29:25.395Z,9068
2017-07-02T12:30:25.481Z,9016
2017-07-02T12:31:25.440Z,9076
2017-07-02T12:32:24.752Z,8916
2017-07-02T12:33:25.439Z,8816
2017-07-02T12:34:25.396Z,8404
2017-07-02T12:35:25.376Z,8072
2017-07-02T12:36:24.997Z,7548
2017-07-02T12:37:25.359Z,7004
2017-07-02T12:38:25.337Z,6472
2017-07-02T12:39:25.392Z,6716
2017-07-02T12:40:25.046Z,7160
2017-07-02T12:41:24.627Z,7228
2017-07-02T12:42:25.286Z,7112
2017-07-02T12:43:25.294Z,7060
2017-07-02T12:44:24.611Z,9608
2017-07-02T12:45:24.662Z,7488
2017-07-02T12:46:25.201Z,7540
2017-07-02T12:47:25.174Z,7084
2017-07-02T12:48:25.164Z,7196
2017-07-02T12:49:25.176Z,6532
2017-07-02T12:50:24.527Z,5748
2017-07-02T12:51:24.806Z,6100
2017-07-02T12:52:25.161Z,6492
2017-07-02T12:53:24.886Z,6628
2017-07-02T12:54:24.537Z,6756
2017-07-02T12:55:24.771Z,9412
2017-07-02T12:56:24.442Z,10476
2017-07-02T12:57:24.791Z,7624
2017-07-02T12:58:24.794Z,7804
2017-07-02T12:59:25.046Z,6712
2017-07-02T13:00:25.019Z,6740
2017-07-02T13:01:25.195Z,6328
2017-07-02T13:02:24.995Z,6516
2017-07-02T13:03:24.984Z,7768
2017-07-02T13:04:24.989Z,6988
2017-07-02T13:05:24.641Z,7012
2017-07-02T13:06:24.656Z,7264
2017-07-02T13:07:24.334Z,7204
2017-07-02T13:08:24.925Z,6948
2017-07-02T13:09:24.911Z,6772
2017-07-02T13:10:24.598Z,6096
2017-07-02T13:11:24.890Z,5820
2017-07-02T13:12:24.864Z,6820
2017-07-02T13:13:24.863Z,7196
2017-07-02T13:14:24.561Z,7416
2017-07-02T13:15:24.622Z,7260
2017-07-02T13:16:24.521Z,6372
2017-07-02T13:17:24.833Z,5324
2017-07-02T13:18:24.829Z,4920
2017-07-02T13:19:24.798Z,4792
2017-07-02T13:20:24.792Z,4624
2017-07-02T13:21:24.153Z,4764
2017-07-02T13:22:24.752Z,4804
2017-07-02T13:23:24.133Z,5204
2017-07-02T13:24:24.749Z,5380
2017-07-02T13:25:24.735Z,5304
2017-07-02T13:26:24.462Z,4744
2017-07-02T13:27:24.829Z,4112
2017-07-02T13:28:24.692Z,3764
2017-07-02T13:29:24.082Z,4316
2017-07-02T13:30:24.362Z,7012
2017-07-02T13:31:24.052Z,5776
2017-07-02T13:32:24.323Z,4420
2017-07-02T13:33:24.743Z,4572
2017-07-02T13:34:24.319Z,4032
2017-07-02T13:35:24.324Z,3788
2017-07-02T13:36:24.296Z,3960
2017-07-02T13:37:24.689Z,4408
2017-07-02T13:38:24.249Z,7184
2017-07-02T13:39:24.254Z,7716
2017-07-02T13:40:24.238Z,8664
2017-07-02T13:41:24.276Z,8596